createdAt,value
2023-02-07T00:00:44.727Z,59.70
2023-02-07T00:03:42.711Z,59.30
2023-02-07T00:06:37.831Z,58.60
2023-02-07T00:09:30.661Z,59.70
2023-02-07T00:12:23.501Z,60.40
2023-02-07T00:15:15.070Z,59.50
2023-02-07T00:18:07.897Z,61.00
2023-02-07T00:21:05.638Z,53.50
2023-02-07T00:23:59.549Z,55.50
2023-02-07T00:26:53.202Z,53.30
2023-02-07T00:29:46.032Z,54.00
2023-02-07T00:32:38.918Z,55.60
2023-02-07T00:35:31.663Z,52.00
2023-02-07T00:38:16.149Z,53.60
2023-02-07T00:41:09.325Z,53.20
2023-02-07T00:44:02.788Z,53.50
2023-02-07T00:46:55.585Z,50.70
2023-02-07T00:49:51.354Z,48.00
2023-02-07T00:52:44.020Z,46.30
2023-02-07T00:55:37.716Z,47.30
2023-02-07T00:58:30.936Z,44.40
2023-02-07T01:01:27.500Z,43.70
2023-02-07T01:04:20.361Z,45.30
2023-02-07T01:07:03.455Z,47.70
2023-02-07T01:09:56.867Z,43.10
2023-02-07T01:12:49.893Z,45.90
2023-02-07T01:15:46.284Z,43.50
2023-02-07T01:18:39.401Z,42.80
2023-02-07T01:21:32.443Z,41.80
2023-02-07T01:24:25.177Z,42.70
2023-02-07T01:27:17.960Z,47.00
2023-02-07T01:30:12.442Z,44.40
2023-02-07T01:33:05.355Z,42.50
2023-02-07T01:35:58.157Z,41.10
2023-02-07T01:38:50.948Z,40.50
2023-02-07T01:41:43.819Z,44.40
2023-02-07T01:45:02.881Z,44.40
2023-02-07T01:50:37.738Z,43.10
2023-02-07T01:53:34.764Z,41.80
2023-02-07T01:56:31.273Z,44.20
2023-02-07T01:59:26.654Z,43.50
2023-02-07T02:02:22.031Z,42.50
2023-02-07T02:05:01.183Z,42.20
2023-02-07T02:07:54.011Z,42.00
2023-02-07T02:11:03.601Z,43.70
2023-02-07T02:14:06.076Z,43.60
2023-02-07T02:17:06.225Z,41.90
2023-02-07T02:20:24.854Z,41.90
2023-02-07T02:23:33.682Z,42.90
2023-02-07T02:27:05.476Z,43.00
2023-02-07T02:30:31.345Z,43.50
2023-02-07T02:33:41.233Z,45.20
2023-02-07T02:36:43.199Z,44.20
2023-02-07T02:39:42.774Z,44.80
2023-02-07T02:42:42.213Z,45.60
2023-02-07T02:45:42.101Z,43.80
2023-02-07T02:48:36.596Z,41.60
2023-02-07T02:51:31.462Z,42.00
2023-02-07T02:54:29.781Z,43.10
2023-02-07T02:57:50.721Z,42.60
2023-02-07T03:00:57.265Z,43.70
2023-02-07T03:04:03.130Z,44.30
2023-02-07T03:07:29.620Z,40.40
2023-02-07T03:10:32.229Z,38.80
2023-02-07T03:13:30.762Z,43.10
2023-02-07T03:16:28.154Z,40.00
2023-02-07T03:19:27.980Z,38.80
2023-02-07T03:22:24.345Z,41.70
2023-02-07T03:25:20.045Z,43.90
2023-02-07T03:28:05.410Z,43.20
2023-02-07T03:31:00.466Z,43.70
2023-02-07T03:34:04.729Z,44.20
2023-02-07T03:37:00.182Z,40.50
2023-02-07T03:39:53.848Z,41.30
2023-02-07T03:42:51.653Z,40.80
2023-02-07T03:45:44.973Z,43.60
2023-02-07T03:48:38.050Z,41.00
2023-02-07T03:51:23.891Z,42.80
2023-02-07T03:54:16.907Z,42.70
2023-02-07T03:57:09.889Z,42.70
2023-02-07T04:00:02.688Z,39.10
2023-02-07T04:02:55.442Z,39.20
2023-02-07T04:05:49.617Z,44.70
2023-02-07T04:08:42.975Z,44.40
2023-02-07T04:11:36.041Z,43.90
2023-02-07T04:14:27.812Z,44.30
2023-02-07T04:17:20.663Z,44.40
2023-02-07T04:19:56.195Z,44.70
2023-02-07T04:22:49.093Z,44.90
2023-02-07T04:25:41.851Z,45.80
2023-02-07T04:28:34.978Z,47.80
2023-02-07T04:31:27.770Z,44.90
2023-02-07T04:34:20.635Z,48.20
2023-02-07T04:37:13.420Z,49.40
2023-02-07T04:40:06.969Z,45.60
2023-02-07T04:42:59.722Z,47.20
2023-02-07T04:45:52.536Z,45.40
2023-02-07T04:48:45.394Z,48.80
2023-02-07T04:51:38.325Z,48.10
2023-02-07T04:54:31.219Z,46.80
2023-02-07T04:57:24.589Z,48.70
2023-02-07T05:00:19.123Z,44.10
2023-02-07T05:03:11.926Z,47.90
2023-02-07T05:06:05.010Z,46.60
2023-02-07T05:08:57.830Z,45.00
2023-02-07T05:11:50.690Z,44.20
2023-02-07T05:14:43.434Z,46.80
2023-02-07T05:17:38.640Z,46.00
2023-02-07T05:20:21.739Z,41.50
2023-02-07T05:23:15.408Z,42.90
2023-02-07T05:26:08.655Z,43.50
2023-02-07T05:29:03.102Z,44.90
2023-02-07T05:32:13.370Z,45.90
2023-02-07T05:35:06.652Z,47.30
2023-02-07T05:37:59.471Z,41.40
2023-02-07T05:40:52.321Z,45.50
2023-02-07T05:43:45.043Z,42.20
2023-02-07T05:46:37.885Z,43.10
2023-02-07T05:49:30.941Z,40.30
2023-02-07T05:52:23.493Z,38.80
2023-02-07T05:55:16.752Z,39.80
2023-02-07T05:58:09.510Z,31.80
2023-02-07T06:00:52.437Z,39.50
2023-02-07T06:03:39.115Z,35.90
2023-02-07T06:06:32.019Z,36.40
2023-02-07T06:09:25.337Z,35.80
2023-02-07T06:12:11.097Z,42.80
2023-02-07T06:15:04.886Z,39.40
2023-02-07T06:17:57.693Z,47.60
2023-02-07T06:20:53.304Z,46.80
2023-02-07T06:23:47.118Z,35.70
2023-02-07T06:26:39.958Z,40.30
2023-02-07T06:29:33.124Z,40.00
2023-02-07T06:32:26.179Z,38.00
2023-02-07T06:35:19.810Z,35.40
2023-02-07T06:38:12.696Z,35.50
2023-02-07T06:41:08.363Z,36.70
2023-02-07T06:44:01.482Z,32.30
2023-02-07T06:46:47.425Z,30.40
2023-02-07T06:49:38.962Z,32.40
2023-02-07T06:52:22.425Z,33.10
2023-02-07T06:55:09.650Z,33.10
2023-02-07T06:58:02.829Z,32.20
2023-02-07T07:00:55.931Z,27.80
2023-02-07T07:03:48.892Z,32.80
2023-02-07T07:06:41.943Z,34.10
2023-02-07T07:09:35.341Z,33.00
2023-02-07T07:12:28.331Z,33.50
2023-02-07T07:15:22.915Z,31.30
2023-02-07T07:18:16.210Z,33.60
2023-02-07T07:21:10.348Z,34.40
2023-02-07T07:24:03.222Z,34.80
2023-02-07T07:26:56.819Z,32.70
2023-02-07T07:29:49.715Z,33.40
2023-02-07T07:32:35.451Z,33.40
2023-02-07T07:35:28.844Z,35.30
2023-02-07T07:38:20.391Z,30.80
2023-02-07T07:41:13.478Z,32.40
2023-02-07T07:44:06.928Z,31.30
2023-02-07T07:47:00.235Z,32.80
2023-02-07T07:49:53.274Z,32.50
2023-02-07T07:52:46.682Z,32.70
2023-02-07T07:55:33.340Z,33.10
2023-02-07T07:58:28.209Z,31.40
2023-02-07T08:01:21.439Z,30.90
2023-02-07T08:04:04.973Z,31.90
2023-02-07T08:06:57.940Z,29.70
2023-02-07T08:09:44.126Z,30.30
2023-02-07T08:12:19.260Z,33.30
2023-02-07T08:15:14.065Z,32.30
2023-02-07T08:18:10.093Z,32.20
2023-02-07T08:20:46.196Z,41.50
2023-02-07T08:23:39.452Z,40.50
2023-02-07T08:26:17.602Z,38.80
2023-02-07T08:28:53.763Z,39.00
2023-02-07T08:31:29.729Z,37.50
2023-02-07T08:34:05.132Z,36.30
2023-02-07T08:36:39.542Z,33.80
2023-02-07T08:39:12.437Z,34.20
2023-02-07T08:41:45.418Z,34.60
2023-02-07T08:44:18.436Z,30.10
2023-02-07T08:46:53.948Z,32.70
2023-02-07T08:49:31.829Z,33.10
2023-02-07T08:52:05.095Z,32.10
2023-02-07T08:54:48.154Z,34.10
2023-02-07T08:57:23.252Z,32.20
2023-02-07T08:59:57.820Z,35.40
2023-02-07T09:02:33.632Z,31.70
2023-02-07T09:05:06.895Z,35.00
2023-02-07T09:07:39.684Z,36.00
2023-02-07T09:10:16.000Z,35.80
2023-02-07T09:12:49.102Z,35.70
2023-02-07T09:15:22.284Z,35.40
2023-02-07T09:17:54.955Z,36.10
2023-02-07T09:20:27.675Z,34.40
2023-02-07T09:23:17.740Z,35.10
2023-02-07T09:25:54.350Z,33.70
2023-02-07T09:28:27.286Z,33.90
2023-02-07T09:31:00.238Z,32.10
2023-02-07T09:33:34.815Z,32.70
2023-02-07T09:36:18.238Z,33.10
2023-02-07T09:38:52.802Z,33.40
2023-02-07T09:41:37.933Z,34.10
2023-02-07T09:44:18.942Z,34.80
2023-02-07T09:46:59.813Z,34.70
2023-02-07T09:49:38.606Z,36.40
2023-02-07T09:52:18.420Z,34.90
2023-02-07T09:54:55.230Z,33.40
2023-02-07T09:57:37.900Z,32.30
2023-02-07T10:00:24.502Z,33.40
2023-02-07T10:03:02.502Z,33.70
2023-02-07T10:05:43.404Z,35.70
2023-02-07T10:08:18.849Z,34.90
2023-02-07T10:11:01.203Z,35.70
2023-02-07T10:13:47.181Z,34.30
2023-02-07T10:16:32.539Z,34.30
2023-02-07T10:19:15.429Z,32.60
2023-02-07T10:21:58.219Z,33.40
2023-02-07T10:24:56.541Z,33.70
2023-02-07T10:27:33.860Z,33.60
2023-02-07T10:30:16.460Z,34.60
2023-02-07T10:32:52.202Z,33.10
2023-02-07T10:35:30.086Z,36.10
2023-02-07T10:38:04.057Z,34.00
2023-02-07T10:40:42.390Z,36.40
2023-02-07T10:43:23.391Z,35.70
2023-02-07T10:46:04.576Z,37.40
2023-02-07T10:48:39.596Z,34.70
2023-02-07T10:51:29.580Z,36.80
2023-02-07T10:54:09.992Z,38.00
2023-02-07T10:56:47.716Z,32.00
2023-02-07T10:59:46.674Z,35.40
2023-02-07T11:02:54.789Z,35.40
2023-02-07T11:05:34.851Z,34.70
2023-02-07T11:08:18.888Z,36.40
2023-02-07T11:10:56.247Z,37.40
2023-02-07T11:13:31.328Z,38.20
2023-02-07T11:16:08.047Z,39.50
2023-02-07T11:18:46.345Z,41.00
2023-02-07T11:21:36.916Z,36.40
2023-02-07T11:24:16.049Z,35.60
2023-02-07T11:26:58.136Z,38.80
2023-02-07T11:29:35.545Z,38.80
2023-02-07T11:32:15.001Z,36.00
2023-02-07T11:34:54.597Z,37.60
2023-02-07T11:37:34.135Z,36.80
2023-02-07T11:40:29.415Z,37.80
2023-02-07T11:43:13.906Z,33.60
2023-02-07T11:45:51.351Z,34.70
2023-02-07T11:48:27.411Z,35.20
2023-02-07T11:51:03.544Z,33.60
2023-02-07T11:53:41.086Z,35.80
2023-02-07T11:56:25.643Z,36.00
2023-02-07T11:59:01.445Z,34.90
2023-02-07T12:01:39.759Z,35.70
2023-02-07T12:04:18.527Z,36.20
2023-02-07T12:06:58.801Z,35.90
2023-02-07T12:09:42.316Z,36.10
2023-02-07T12:12:23.889Z,35.50
2023-02-07T12:15:01.705Z,35.30
2023-02-07T12:17:40.553Z,35.60
2023-02-07T12:20:23.798Z,35.20
2023-02-07T12:23:21.451Z,35.20
2023-02-07T12:26:03.258Z,35.80
2023-02-07T12:28:43.528Z,34.40
2023-02-07T12:31:25.881Z,34.80
2023-02-07T12:34:04.984Z,34.40
2023-02-07T12:36:44.045Z,35.50
2023-02-07T12:39:25.607Z,37.10
2023-02-07T12:42:24.974Z,38.70
2023-02-07T12:45:02.038Z,37.90
2023-02-07T12:47:57.418Z,36.50
2023-02-07T12:50:55.877Z,37.80
2023-02-07T12:54:01.613Z,37.10
2023-02-07T12:56:57.631Z,36.80
2023-02-07T12:59:47.169Z,36.80
2023-02-07T13:02:52.570Z,37.00
2023-02-07T13:05:52.574Z,36.50
2023-02-07T13:08:35.308Z,38.20
2023-02-07T13:11:16.704Z,37.10
2023-02-07T13:13:59.626Z,40.20
2023-02-07T13:16:42.956Z,36.70
2023-02-07T13:19:24.488Z,43.40
2023-02-07T13:22:04.273Z,41.50
2023-02-07T13:24:39.707Z,40.90
2023-02-07T13:27:18.566Z,39.50
2023-02-07T13:29:53.029Z,39.90
2023-02-07T13:32:28.590Z,40.20
2023-02-07T13:35:08.716Z,40.80
2023-02-07T13:37:53.411Z,38.60
2023-02-07T13:40:51.897Z,41.60
2023-02-07T13:43:44.079Z,41.30
2023-02-07T13:46:31.772Z,42.60
2023-02-07T13:49:30.735Z,41.50
2023-02-07T13:52:19.800Z,42.30
2023-02-07T13:55:03.854Z,42.50
2023-02-07T13:58:04.880Z,42.40
2023-02-07T14:01:20.943Z,40.90
2023-02-07T14:04:06.848Z,43.60
2023-02-07T14:07:12.035Z,46.00
2023-02-07T14:10:06.064Z,43.80
2023-02-07T14:12:54.574Z,42.60
2023-02-07T14:16:02.608Z,41.60
2023-02-07T14:18:55.802Z,43.20
2023-02-07T14:21:48.852Z,45.00
2023-02-07T14:25:15.109Z,45.10
2023-02-07T14:28:20.004Z,45.70
2023-02-07T14:31:32.517Z,41.80
2023-02-07T14:34:30.261Z,44.40
2023-02-07T14:37:41.236Z,47.00
2023-02-07T14:40:25.899Z,46.60
2023-02-07T14:43:24.961Z,43.50
2023-02-07T14:46:25.955Z,47.70
2023-02-07T14:49:21.085Z,47.10
2023-02-07T14:52:00.301Z,51.50
2023-02-07T14:54:44.296Z,48.30
2023-02-07T14:57:47.795Z,52.50
2023-02-07T15:00:47.471Z,49.60
2023-02-07T15:03:40.855Z,45.90
2023-02-07T15:06:41.148Z,50.00
2023-02-07T15:09:36.023Z,47.40
2023-02-07T15:12:30.364Z,43.70
2023-02-07T15:15:25.015Z,46.20
2023-02-07T15:18:20.699Z,48.70
2023-02-07T15:21:06.672Z,50.30
2023-02-07T15:24:04.569Z,45.80
2023-02-07T15:26:59.964Z,43.50
2023-02-07T15:29:59.660Z,46.90
2023-02-07T15:32:47.627Z,51.20
2023-02-07T15:35:24.546Z,48.70
2023-02-07T15:38:14.814Z,50.10
2023-02-07T15:41:08.640Z,55.20
2023-02-07T15:44:03.152Z,56.10
2023-02-07T15:46:58.540Z,52.30
2023-02-07T15:49:43.461Z,54.60
2023-02-07T15:52:40.543Z,55.00
2023-02-07T15:55:38.972Z,56.40
2023-02-07T15:58:37.998Z,50.20
2023-02-07T16:01:32.558Z,46.10
2023-02-07T16:04:09.632Z,47.20
2023-02-07T16:07:07.745Z,47.80
2023-02-07T16:12:53.069Z,47.50
2023-02-07T16:15:57.547Z,49.50
2023-02-07T16:18:43.004Z,54.60
2023-02-07T16:21:38.639Z,58.90
2023-02-07T16:24:31.054Z,57.00
2023-02-07T16:27:23.946Z,56.30
2023-02-07T16:29:57.326Z,55.00
2023-02-07T16:32:50.664Z,60.90
2023-02-07T16:35:27.445Z,60.00
2023-02-07T16:38:00.575Z,58.30
2023-02-07T16:40:33.912Z,58.70
2023-02-07T16:43:08.075Z,52.80
2023-02-07T16:45:41.398Z,49.90
2023-02-07T16:48:18.318Z,53.00
2023-02-07T16:50:51.071Z,54.30
2023-02-07T16:53:23.790Z,52.10
2023-02-07T16:55:58.468Z,52.20
2023-02-07T16:58:34.855Z,56.20
2023-02-07T17:01:14.397Z,60.30
2023-02-07T17:03:58.592Z,55.80
2023-02-07T17:06:52.000Z,54.00
2023-02-07T17:09:46.611Z,48.90
2023-02-07T17:12:39.057Z,47.40
2023-02-07T17:15:33.377Z,47.20
2023-02-07T17:18:20.724Z,48.80
2023-02-07T17:20:56.978Z,50.30
2023-02-07T17:23:32.367Z,50.40
2023-02-07T17:26:31.264Z,52.90
2023-02-07T17:29:04.218Z,55.10
2023-02-07T17:31:47.675Z,57.10
2023-02-07T17:34:42.327Z,60.90
2023-02-07T17:37:35.413Z,60.30
2023-02-07T17:40:27.342Z,63.30
2023-02-07T17:43:20.666Z,61.00
2023-02-07T17:46:10.464Z,59.50
2023-02-07T17:49:04.072Z,56.80
2023-02-07T17:51:57.409Z,54.70
2023-02-07T17:54:50.642Z,58.50
2023-02-07T17:57:43.944Z,63.30
2023-02-07T18:00:39.573Z,63.30
2023-02-07T18:03:33.261Z,57.10
2023-02-07T18:06:28.880Z,59.30
2023-02-07T18:09:24.834Z,66.10
2023-02-07T18:12:17.902Z,67.30
2023-02-07T18:15:12.115Z,64.50
2023-02-07T18:17:47.386Z,65.10
2023-02-07T18:20:40.517Z,64.40
2023-02-07T18:23:24.650Z,66.60
2023-02-07T18:26:19.443Z,65.50
2023-02-07T18:29:12.572Z,60.40
2023-02-07T18:32:05.404Z,62.20
2023-02-07T18:34:49.488Z,68.20
2023-02-07T18:37:42.277Z,71.00
2023-02-07T18:40:35.479Z,65.10
2023-02-07T18:43:28.692Z,71.00
2023-02-07T18:46:22.717Z,69.50
2023-02-07T18:49:16.674Z,68.60
2023-02-07T18:52:09.769Z,60.10
2023-02-07T18:55:02.615Z,64.50
2023-02-07T18:57:57.836Z,58.30
2023-02-07T19:00:50.596Z,66.40
2023-02-07T19:03:44.876Z,66.20
2023-02-07T19:06:30.051Z,58.00
2023-02-07T19:09:23.909Z,66.60
2023-02-07T19:12:16.662Z,62.40
2023-02-07T19:15:10.739Z,61.50
2023-02-07T19:18:05.459Z,62.90
2023-02-07T19:20:50.771Z,57.80
2023-02-07T19:23:43.954Z,55.00
2023-02-07T19:26:27.098Z,51.90
2023-02-07T19:29:12.269Z,47.10
2023-02-07T19:31:55.263Z,45.20
2023-02-07T19:34:49.161Z,44.60
2023-02-07T19:37:33.068Z,44.70
2023-02-07T19:40:25.839Z,43.40
2023-02-07T19:43:01.622Z,45.40
2023-02-07T19:45:54.715Z,46.40
2023-02-07T19:48:47.912Z,55.10
2023-02-07T19:51:40.801Z,55.20
2023-02-07T19:54:33.727Z,51.60
2023-02-07T19:57:28.103Z,51.40
2023-02-07T20:00:07.116Z,51.30
2023-02-07T20:02:43.083Z,48.10
2023-02-07T20:05:18.847Z,50.10
2023-02-07T20:07:51.600Z,50.50
2023-02-07T20:10:25.039Z,52.40
2023-02-07T20:13:18.850Z,55.00
2023-02-07T20:16:14.931Z,52.20
2023-02-07T20:19:01.006Z,47.40
2023-02-07T20:21:43.715Z,51.30
2023-02-07T20:24:29.317Z,49.30
2023-02-07T20:27:22.439Z,47.00
2023-02-07T20:30:16.027Z,46.60
2023-02-07T20:33:00.651Z,50.50
2023-02-07T20:35:44.336Z,48.70
2023-02-07T20:38:19.850Z,48.50
2023-02-07T20:40:58.233Z,51.70
2023-02-07T20:43:46.045Z,50.00
2023-02-07T20:46:40.232Z,46.70
2023-02-07T20:49:16.734Z,48.10
2023-02-07T20:52:09.813Z,56.90
2023-02-07T20:55:02.747Z,48.60
2023-02-07T20:57:44.445Z,37.80
2023-02-07T21:00:37.695Z,32.00
2023-02-07T21:03:30.618Z,37.10
2023-02-07T21:06:16.954Z,34.50
2023-02-07T21:09:10.343Z,32.40
2023-02-07T21:12:04.375Z,33.80
2023-02-07T21:14:48.135Z,34.90
2023-02-07T21:17:42.005Z,30.80
2023-02-07T21:20:36.710Z,30.30
2023-02-07T21:23:30.058Z,32.70
2023-02-07T21:26:23.630Z,31.10
2023-02-07T21:29:07.924Z,33.00
2023-02-07T21:32:02.087Z,30.10
2023-02-07T21:34:34.774Z,29.40
2023-02-07T21:37:10.179Z,29.40
2023-02-07T21:40:03.474Z,28.70
2023-02-07T21:42:40.693Z,31.40
2023-02-07T21:45:23.636Z,28.30
2023-02-07T21:47:56.349Z,28.40
2023-02-07T21:50:49.164Z,29.60
2023-02-07T21:53:33.829Z,28.10
2023-02-07T21:56:29.570Z,26.90
2023-02-07T21:59:23.714Z,25.90
2023-02-07T22:02:16.806Z,23.20
2023-02-07T22:05:10.055Z,24.30
2023-02-07T22:08:03.931Z,23.50
2023-02-07T22:10:45.205Z,23.60
2023-02-07T22:13:41.267Z,28.70
2023-02-07T22:16:35.166Z,27.30
2023-02-07T22:19:29.282Z,29.50
2023-02-07T22:22:22.064Z,31.50
2023-02-07T22:25:17.005Z,31.90
2023-02-07T22:28:09.971Z,31.10
2023-02-07T22:31:09.080Z,30.20
2023-02-07T22:34:05.275Z,28.00
2023-02-07T22:36:58.598Z,27.50
2023-02-07T22:39:53.165Z,29.90
2023-02-07T22:42:46.045Z,28.80
2023-02-07T22:45:42.553Z,26.30
2023-02-07T22:48:36.161Z,25.00
2023-02-07T22:51:26.000Z,24.20
2023-02-07T22:54:20.645Z,26.30
2023-02-07T22:57:13.497Z,30.90
2023-02-07T23:00:08.607Z,27.80
2023-02-07T23:03:02.676Z,29.60
2023-02-07T23:05:55.545Z,33.70
2023-02-07T23:08:48.404Z,33.80
2023-02-07T23:11:41.333Z,30.20
2023-02-07T23:14:17.697Z,31.50
2023-02-07T23:16:59.376Z,28.70
2023-02-07T23:19:54.029Z,28.40
2023-02-07T23:22:48.759Z,30.70
2023-02-07T23:25:45.232Z,36.70
2023-02-07T23:28:40.773Z,38.70
2023-02-07T23:31:25.199Z,37.60
2023-02-07T23:34:18.158Z,43.80
2023-02-07T23:37:01.009Z,45.00
2023-02-07T23:39:53.784Z,37.30
2023-02-07T23:42:36.854Z,42.20
2023-02-07T23:45:25.095Z,39.20
2023-02-07T23:48:18.088Z,36.20
2023-02-07T23:51:11.989Z,38.10
2023-02-07T23:54:06.177Z,35.30
2023-02-07T23:56:58.905Z,31.50
2023-02-07T23:59:51.823Z,30.80
